Arcadia, Indiana
Current Conditions -  °F | °C
As of 10:35 PM on Sunday 23 Nov 2014 (Local Time) from KTYQ Reporting Station
Moderate Rain Moderate Rain  
Wind Chill: 55°   Ceiling: 900
Heat Index: 55°   Visibility: 7mi
Dew Point: 52°   Wind: 12mph
Humidity: 89%   Direction: 160°SSE
Pressure: 29.18"   Gusts: 20mph
Location:  40.18°N, 86.02°W
Report Text: KTYQ 240335Z AUTO 16010G17KT 7SM RA BKN009 OVC013 13/11 A2918 RMK AO2 P0013 T01260109
Loading
Personal Weather Stations






























Interactive Weather Map New forecast layout! Learn more

10-Day Weather Forecast

Advertisements
Track Severe Weather on mobile